createdAt,value
2018-01-15T00:00:50.946Z,1013.08
2018-01-15T00:02:43.835Z,1013.08
2018-01-15T00:03:43.854Z,1013.07
2018-01-15T00:05:36.755Z,1013.05
2018-01-15T00:06:36.748Z,1012.98
2018-01-15T00:08:29.651Z,1012.98
2018-01-15T00:09:29.666Z,1012.96
2018-01-15T00:11:22.582Z,1012.88
2018-01-15T00:12:22.578Z,1012.84
2018-01-15T00:14:15.485Z,1012.81
2018-01-15T00:15:15.479Z,1012.84
2018-01-15T00:17:08.373Z,1012.77
2018-01-15T00:18:08.389Z,1012.76
2018-01-15T00:20:01.300Z,1012.75
2018-01-15T00:21:01.288Z,1012.76
2018-01-15T00:22:54.191Z,1012.73
2018-01-15T00:23:54.199Z,1012.73
2018-01-15T00:25:47.114Z,1012.71
2018-01-15T00:26:47.106Z,1012.71
2018-01-15T00:28:39.993Z,1012.69
2018-01-15T00:29:40.007Z,1012.71
2018-01-15T00:31:32.934Z,1012.67
2018-01-15T00:32:32.926Z,1012.64
2018-01-15T00:34:25.846Z,1012.54
2018-01-15T00:35:25.835Z,1012.52
2018-01-15T00:37:18.724Z,1012.50
2018-01-15T00:38:18.737Z,1012.46
2018-01-15T00:40:11.640Z,1012.33
2018-01-15T00:41:11.633Z,1012.31
2018-01-15T00:43:04.535Z,1012.26
2018-01-15T00:44:04.549Z,1012.26
2018-01-15T00:45:57.460Z,1012.23
2018-01-15T00:46:57.454Z,1012.24
2018-01-15T00:48:50.348Z,1012.20
2018-01-15T00:49:50.361Z,1012.21
2018-01-15T00:51:43.273Z,1012.22
2018-01-15T00:52:43.284Z,1012.19
2018-01-15T00:54:36.193Z,1012.19
2018-01-15T00:55:36.185Z,1012.16
2018-01-15T00:57:29.074Z,1012.17
2018-01-15T00:58:29.086Z,1012.14
2018-01-15T01:00:21.992Z,1012.15
2018-01-15T01:01:21.984Z,1012.18
2018-01-15T01:03:14.885Z,1012.17
2018-01-15T01:04:14.899Z,1012.18
2018-01-15T01:06:07.823Z,1012.14
2018-01-15T01:07:07.809Z,1012.15
2018-01-15T01:09:00.705Z,1012.11
2018-01-15T01:10:00.717Z,1012.09
2018-01-15T01:11:53.633Z,1012.07
2018-01-15T01:12:53.624Z,1012.05
2018-01-15T01:14:46.538Z,1012.05
2018-01-15T01:15:46.530Z,1012.07
2018-01-15T01:17:39.427Z,1012.09
2018-01-15T01:18:39.440Z,1012.09
2018-01-15T01:20:32.353Z,1012.06
2018-01-15T01:21:32.347Z,1012.03
2018-01-15T01:23:25.237Z,1012.00
2018-01-15T01:24:25.249Z,1012.01
2018-01-15T01:26:18.157Z,1011.97
2018-01-15T01:27:18.149Z,1011.96
2018-01-15T01:29:11.043Z,1011.96
2018-01-15T01:30:11.056Z,1011.96
2018-01-15T01:32:03.964Z,1011.95
2018-01-15T01:33:03.955Z,1011.91
2018-01-15T01:34:56.884Z,1011.87
2018-01-15T01:35:56.875Z,1011.84
2018-01-15T01:37:49.774Z,1011.80
2018-01-15T01:38:49.786Z,1011.80
2018-01-15T01:40:42.696Z,1011.82
2018-01-15T01:41:42.687Z,1011.83
2018-01-15T01:43:35.586Z,1011.84
2018-01-15T01:44:35.605Z,1011.84
2018-01-15T01:46:28.510Z,1011.85
2018-01-15T01:47:28.503Z,1011.83
2018-01-15T01:49:21.404Z,1011.83
2018-01-15T01:50:21.411Z,1011.77
2018-01-15T01:52:14.323Z,1011.71
2018-01-15T01:53:14.316Z,1011.71
2018-01-15T01:55:07.229Z,1011.73
2018-01-15T01:56:07.226Z,1011.72
2018-01-15T01:58:00.123Z,1011.76
2018-01-15T01:59:00.134Z,1011.71
2018-01-15T02:00:53.048Z,1011.70
2018-01-15T02:01:53.036Z,1011.62
2018-01-15T02:03:45.933Z,1011.60
2018-01-15T02:04:45.947Z,1011.54
2018-01-15T02:06:38.861Z,1011.51
2018-01-15T02:07:38.849Z,1011.48
2018-01-15T02:09:31.749Z,1011.47
2018-01-15T02:10:31.762Z,1011.40
2018-01-15T02:12:24.673Z,1011.37
2018-01-15T02:13:24.667Z,1011.37
2018-01-15T02:15:17.585Z,1011.36
2018-01-15T02:16:17.578Z,1011.33
2018-01-15T02:18:10.472Z,1011.31
2018-01-15T02:19:10.487Z,1011.26
2018-01-15T02:21:03.392Z,1011.22
2018-01-15T02:22:03.386Z,1011.20
2018-01-15T02:23:56.284Z,1011.18
2018-01-15T02:24:56.295Z,1011.15
2018-01-15T02:26:49.226Z,1011.14
2018-01-15T02:27:49.197Z,1011.13
2018-01-15T02:29:42.095Z,1011.15
2018-01-15T02:30:42.111Z,1011.15
2018-01-15T02:32:35.022Z,1011.12
2018-01-15T02:33:35.015Z,1011.12
2018-01-15T02:35:27.930Z,1011.10
2018-01-15T02:36:27.923Z,1011.09
2018-01-15T02:38:20.820Z,1011.08
2018-01-15T02:39:20.834Z,1011.05
2018-01-15T02:41:13.744Z,1011.06
2018-01-15T02:42:13.736Z,1011.02
2018-01-15T02:44:06.632Z,1010.98
2018-01-15T02:45:06.646Z,1011.00
2018-01-15T02:46:59.555Z,1010.98
2018-01-15T02:47:59.548Z,1010.98
2018-01-15T02:49:52.442Z,1010.98
2018-01-15T02:50:52.456Z,1011.01
2018-01-15T02:52:45.370Z,1010.94
2018-01-15T02:53:45.362Z,1011.00
2018-01-15T02:55:38.273Z,1010.96
2018-01-15T02:56:38.268Z,1010.95
2018-01-15T02:58:31.157Z,1010.95
2018-01-15T02:59:31.170Z,1010.93
2018-01-15T03:01:24.077Z,1010.87
2018-01-15T03:02:24.072Z,1010.87
2018-01-15T03:04:16.968Z,1010.85
2018-01-15T03:05:16.981Z,1010.84
2018-01-15T03:07:09.922Z,1010.78
2018-01-15T03:08:09.914Z,1010.78
2018-01-15T03:10:02.805Z,1010.73
2018-01-15T03:11:02.815Z,1010.75
2018-01-15T03:12:55.729Z,1010.76
2018-01-15T03:13:55.721Z,1010.69
2018-01-15T03:15:48.629Z,1010.61
2018-01-15T03:16:48.622Z,1010.58
2018-01-15T03:18:41.519Z,1010.58
2018-01-15T03:19:41.530Z,1010.53
2018-01-15T03:21:34.443Z,1010.49
2018-01-15T03:22:34.436Z,1010.49
2018-01-15T03:24:27.331Z,1010.48
2018-01-15T03:25:27.347Z,1010.43
2018-01-15T03:27:20.257Z,1010.45
2018-01-15T03:28:20.251Z,1010.44
2018-01-15T03:30:13.148Z,1010.44
2018-01-15T03:31:13.162Z,1010.42
2018-01-15T03:33:06.077Z,1010.42
2018-01-15T03:34:06.070Z,1010.38
2018-01-15T03:35:58.981Z,1010.32
2018-01-15T03:36:58.972Z,1010.34
2018-01-15T03:38:51.872Z,1010.26
2018-01-15T03:39:51.886Z,1010.22
2018-01-15T03:41:44.791Z,1010.13
2018-01-15T03:42:44.785Z,1010.14
2018-01-15T03:44:37.681Z,1010.10
2018-01-15T03:45:37.694Z,1010.08
2018-01-15T03:47:30.607Z,1010.01
2018-01-15T03:48:30.603Z,1010.01
2018-01-15T03:50:23.500Z,1010.00
2018-01-15T03:51:23.513Z,1010.00
2018-01-15T03:53:16.421Z,1009.89
2018-01-15T03:54:16.414Z,1009.93
2018-01-15T03:56:09.328Z,1009.86
2018-01-15T03:57:09.319Z,1009.85
2018-01-15T03:59:02.209Z,1009.82
2018-01-15T04:00:02.225Z,1009.82
2018-01-15T04:01:56.132Z,1009.80
2018-01-15T04:02:56.128Z,1009.78
2018-01-15T04:04:49.018Z,1009.68
2018-01-15T04:05:49.030Z,1009.67
2018-01-15T04:07:42.231Z,1009.61
2018-01-15T04:08:42.218Z,1009.62
2018-01-15T04:10:35.106Z,1009.52
2018-01-15T04:11:35.130Z,1009.55
2018-01-15T04:13:28.034Z,1009.50
2018-01-15T04:14:28.028Z,1009.45
2018-01-15T04:16:20.936Z,1009.47
2018-01-15T04:17:20.955Z,1009.44
2018-01-15T04:19:13.818Z,1009.43
2018-01-15T04:20:13.869Z,1009.42
2018-01-15T04:22:06.742Z,1009.40
2018-01-15T04:23:06.755Z,1009.34
2018-01-15T04:24:59.627Z,1009.30
2018-01-15T04:25:59.643Z,1009.28
2018-01-15T04:27:52.547Z,1009.30
2018-01-15T04:28:52.569Z,1009.30
2018-01-15T04:30:45.439Z,1009.24
2018-01-15T04:31:45.470Z,1009.25
2018-01-15T04:33:38.360Z,1009.22
2018-01-15T04:34:38.350Z,1009.17
2018-01-15T04:36:31.262Z,1009.18
2018-01-15T04:37:31.259Z,1009.13
2018-01-15T04:39:24.148Z,1009.11
2018-01-15T04:40:24.162Z,1009.12
2018-01-15T04:42:17.075Z,1009.08
2018-01-15T04:43:17.068Z,1009.10
2018-01-15T04:45:09.956Z,1009.02
2018-01-15T04:46:09.968Z,1008.97
2018-01-15T04:48:02.881Z,1008.94
2018-01-15T04:49:02.876Z,1008.88
2018-01-15T04:50:55.771Z,1008.90
2018-01-15T04:51:55.785Z,1008.87
2018-01-15T04:53:48.714Z,1008.87
2018-01-15T04:54:48.704Z,1008.84
2018-01-15T04:56:41.615Z,1008.80
2018-01-15T04:57:41.608Z,1008.73
2018-01-15T04:59:34.501Z,1008.69
2018-01-15T05:00:34.517Z,1008.70
2018-01-15T05:02:27.422Z,1008.71
2018-01-15T05:03:27.419Z,1008.64
2018-01-15T05:05:20.309Z,1008.64
2018-01-15T05:06:20.322Z,1008.63
2018-01-15T05:08:13.232Z,1008.67
2018-01-15T05:09:13.226Z,1008.62
2018-01-15T05:11:06.117Z,1008.62
2018-01-15T05:12:06.129Z,1008.60
2018-01-15T05:13:59.036Z,1008.55
2018-01-15T05:14:59.030Z,1008.55
2018-01-15T05:16:51.941Z,1008.50
2018-01-15T05:17:51.937Z,1008.49
2018-01-15T05:19:44.825Z,1008.50
2018-01-15T05:20:44.839Z,1008.45
2018-01-15T05:22:37.760Z,1008.45
2018-01-15T05:23:37.754Z,1008.43
2018-01-15T05:25:30.644Z,1008.37
2018-01-15T05:26:30.663Z,1008.38
2018-01-15T05:28:23.573Z,1008.35
2018-01-15T05:29:23.569Z,1008.34
2018-01-15T05:31:16.510Z,1008.30
2018-01-15T05:32:16.468Z,1008.32
2018-01-15T05:34:09.380Z,1008.31
2018-01-15T05:35:09.470Z,1008.31
2018-01-15T05:37:02.314Z,1008.27
2018-01-15T05:38:02.281Z,1008.26
2018-01-15T05:39:55.175Z,1008.20
2018-01-15T05:40:55.190Z,1008.16
2018-01-15T05:42:48.102Z,1008.10
2018-01-15T05:43:48.099Z,1008.17
2018-01-15T05:45:40.992Z,1008.16
2018-01-15T05:46:41.004Z,1008.14
2018-01-15T05:48:33.919Z,1008.12
2018-01-15T05:49:33.913Z,1008.11
2018-01-15T05:51:26.807Z,1008.08
2018-01-15T05:52:26.822Z,1008.10
2018-01-15T05:54:19.733Z,1008.05
2018-01-15T05:55:19.722Z,1008.04
2018-01-15T05:57:12.632Z,1008.00
2018-01-15T05:58:12.628Z,1008.05
2018-01-15T06:00:05.521Z,1007.96
2018-01-15T06:01:05.532Z,1007.96
2018-01-15T06:02:58.442Z,1007.87
2018-01-15T06:03:58.438Z,1007.90
2018-01-15T06:05:51.334Z,1007.87
2018-01-15T06:06:51.345Z,1007.88
2018-01-15T06:08:44.260Z,1007.86
2018-01-15T06:09:44.258Z,1007.80
2018-01-15T06:11:37.151Z,1007.84
2018-01-15T06:12:37.166Z,1007.80
2018-01-15T06:14:30.076Z,1007.71
2018-01-15T06:15:30.071Z,1007.71
2018-01-15T06:17:22.984Z,1007.64
2018-01-15T06:18:22.979Z,1007.62
2018-01-15T06:20:15.871Z,1007.61
2018-01-15T06:21:15.887Z,1007.60
2018-01-15T06:23:08.794Z,1007.57
2018-01-15T06:24:08.786Z,1007.55
2018-01-15T06:26:01.677Z,1007.51
2018-01-15T06:27:01.690Z,1007.51
2018-01-15T06:28:54.604Z,1007.47
2018-01-15T06:29:54.598Z,1007.43
2018-01-15T06:31:47.489Z,1007.43
2018-01-15T06:32:47.505Z,1007.41
2018-01-15T06:34:40.414Z,1007.39
2018-01-15T06:35:40.408Z,1007.36
2018-01-15T06:37:33.331Z,1007.38
2018-01-15T06:38:33.319Z,1007.35
2018-01-15T06:40:26.212Z,1007.34
2018-01-15T06:41:26.225Z,1007.27
2018-01-15T06:43:19.135Z,1007.29
2018-01-15T06:44:19.129Z,1007.22
2018-01-15T06:46:12.023Z,1007.15
2018-01-15T06:47:12.036Z,1007.09
2018-01-15T06:49:04.951Z,1007.11
2018-01-15T06:50:04.944Z,1007.08
2018-01-15T06:51:57.840Z,1007.06
2018-01-15T06:52:57.854Z,1007.03
2018-01-15T06:54:50.764Z,1007.00
2018-01-15T06:55:50.758Z,1007.04
2018-01-15T06:57:43.670Z,1007.00
2018-01-15T06:58:43.665Z,1006.93
2018-01-15T07:00:36.556Z,1006.90
2018-01-15T07:01:36.570Z,1006.84
2018-01-15T07:03:29.490Z,1006.84
2018-01-15T07:04:29.484Z,1006.85
2018-01-15T07:06:22.378Z,1006.79
2018-01-15T07:07:22.391Z,1006.77
2018-01-15T07:09:15.306Z,1006.76
2018-01-15T07:10:15.299Z,1006.72
2018-01-15T07:12:08.187Z,1006.66
2018-01-15T07:13:08.202Z,1006.66
2018-01-15T07:15:01.111Z,1006.70
2018-01-15T07:16:01.107Z,1006.68
2018-01-15T07:17:54.016Z,1006.68
2018-01-15T07:18:54.010Z,1006.74
2018-01-15T07:20:46.905Z,1006.69
2018-01-15T07:21:46.919Z,1006.72
2018-01-15T07:23:39.844Z,1006.71
2018-01-15T07:24:39.831Z,1006.70
2018-01-15T07:26:32.734Z,1006.69
2018-01-15T07:27:32.745Z,1006.68
2018-01-15T07:29:25.692Z,1006.71
2018-01-15T07:30:25.689Z,1006.73
2018-01-15T07:32:18.588Z,1006.73
2018-01-15T07:33:18.602Z,1006.73
2018-01-15T07:35:11.523Z,1006.68
2018-01-15T07:36:11.518Z,1006.66
2018-01-15T07:38:04.435Z,1006.69
2018-01-15T07:39:04.433Z,1006.68
2018-01-15T07:40:57.413Z,1006.65
2018-01-15T07:41:57.427Z,1006.66
2018-01-15T07:43:50.387Z,1006.60
2018-01-15T07:44:50.385Z,1006.57
2018-01-15T07:46:43.833Z,1006.50
2018-01-15T07:47:43.847Z,1006.50
2018-01-15T07:49:36.806Z,1006.45
2018-01-15T07:50:36.805Z,1006.44
2018-01-15T07:52:29.741Z,1006.43
2018-01-15T07:53:29.760Z,1006.42
2018-01-15T07:55:22.717Z,1006.36
2018-01-15T07:56:22.712Z,1006.35
2018-01-15T07:58:15.674Z,1006.34
2018-01-15T07:59:15.665Z,1006.34
2018-01-15T08:01:08.606Z,1006.32
2018-01-15T08:02:08.618Z,1006.32
2018-01-15T08:04:01.582Z,1006.29
2018-01-15T08:05:01.572Z,1006.25
2018-01-15T08:06:54.512Z,1006.26
2018-01-15T08:07:54.527Z,1006.18
2018-01-15T08:09:47.998Z,1006.14
2018-01-15T08:10:47.994Z,1006.11
2018-01-15T08:12:40.934Z,1006.06
2018-01-15T08:13:40.947Z,1006.00
2018-01-15T08:15:33.911Z,1005.97
2018-01-15T08:16:33.906Z,1005.99
2018-01-15T08:18:26.861Z,1006.03
2018-01-15T08:19:26.857Z,1006.00
2018-01-15T08:21:19.802Z,1005.98
2018-01-15T08:22:19.910Z,1005.96
2018-01-15T08:24:12.769Z,1005.92
2018-01-15T08:25:12.767Z,1005.93
2018-01-15T08:27:05.706Z,1005.88
2018-01-15T08:28:05.722Z,1005.86
2018-01-15T08:29:58.682Z,1005.85
2018-01-15T08:30:58.681Z,1005.86
2018-01-15T08:32:51.643Z,1005.77
2018-01-15T08:33:51.630Z,1005.73
2018-01-15T08:35:44.592Z,1005.75
2018-01-15T08:36:44.584Z,1005.75
2018-01-15T08:38:37.545Z,1005.76
2018-01-15T08:39:37.540Z,1005.69
2018-01-15T08:41:30.473Z,1005.67
2018-01-15T08:42:30.489Z,1005.70
2018-01-15T08:44:23.449Z,1005.70
2018-01-15T08:45:23.445Z,1005.68
2018-01-15T08:47:16.387Z,1005.72
2018-01-15T08:48:16.397Z,1005.69
2018-01-15T08:50:09.357Z,1005.66
2018-01-15T08:51:09.354Z,1005.62
2018-01-15T08:53:02.292Z,1005.54
2018-01-15T08:54:02.305Z,1005.57
2018-01-15T08:55:55.264Z,1005.54
2018-01-15T08:56:55.263Z,1005.53
2018-01-15T08:58:48.218Z,1005.43
2018-01-15T08:59:48.216Z,1005.43
2018-01-15T09:01:41.158Z,1005.35
2018-01-15T09:02:41.169Z,1005.31
2018-01-15T09:04:34.129Z,1005.31
2018-01-15T09:05:34.124Z,1005.29
2018-01-15T09:07:27.068Z,1005.23
2018-01-15T09:08:27.080Z,1005.25
2018-01-15T09:10:20.035Z,1005.16
2018-01-15T09:11:20.032Z,1005.18
2018-01-15T09:13:12.975Z,1005.14
2018-01-15T09:14:12.984Z,1005.12
2018-01-15T09:16:05.946Z,1005.06
2018-01-15T09:17:05.942Z,1005.09
2018-01-15T09:18:58.899Z,1005.05
2018-01-15T09:19:58.894Z,1005.01
2018-01-15T09:21:51.834Z,1004.98
2018-01-15T09:22:51.847Z,1004.93
2018-01-15T09:24:44.817Z,1004.92
2018-01-15T09:25:44.809Z,1004.91
2018-01-15T09:27:37.746Z,1004.87
2018-01-15T09:28:37.764Z,1004.85
2018-01-15T09:30:30.716Z,1004.83
2018-01-15T09:31:30.713Z,1004.80
2018-01-15T09:33:23.659Z,1004.77
2018-01-15T09:34:23.665Z,1004.76
2018-01-15T09:36:16.623Z,1004.71
2018-01-15T09:37:16.621Z,1004.64
2018-01-15T09:39:09.580Z,1004.58
2018-01-15T09:40:09.575Z,1004.55
2018-01-15T09:42:02.514Z,1004.49
2018-01-15T09:43:02.527Z,1004.50
2018-01-15T09:44:55.492Z,1004.48
2018-01-15T09:45:55.485Z,1004.47
2018-01-15T09:47:48.422Z,1004.45
2018-01-15T09:48:48.437Z,1004.44
2018-01-15T09:50:41.424Z,1004.40
2018-01-15T09:51:41.420Z,1004.42
2018-01-15T09:53:34.331Z,1004.38
2018-01-15T09:54:34.347Z,1004.37
2018-01-15T09:56:27.305Z,1004.38
2018-01-15T09:57:27.306Z,1004.36
2018-01-15T09:59:20.259Z,1004.29
2018-01-15T10:00:20.252Z,1004.30
2018-01-15T10:02:13.192Z,1004.29
2018-01-15T10:03:13.208Z,1004.28
2018-01-15T10:05:06.166Z,1004.31
2018-01-15T10:06:06.162Z,1004.29
2018-01-15T10:07:59.106Z,1004.29
2018-01-15T10:08:59.116Z,1004.27
2018-01-15T10:10:52.073Z,1004.23
2018-01-15T10:11:52.068Z,1004.18
2018-01-15T10:13:45.009Z,1004.18
2018-01-15T10:14:45.023Z,1004.17
2018-01-15T10:16:37.982Z,1004.17
2018-01-15T10:17:37.979Z,1004.13
2018-01-15T10:19:30.937Z,1004.10
2018-01-15T10:20:30.933Z,1004.10
2018-01-15T10:22:23.873Z,1004.00
2018-01-15T10:23:23.897Z,1003.95
2018-01-15T10:25:16.844Z,1003.92
2018-01-15T10:26:16.842Z,1003.91
2018-01-15T10:28:09.783Z,1003.88
2018-01-15T10:29:09.804Z,1003.79
2018-01-15T10:31:02.754Z,1003.86
2018-01-15T10:32:02.750Z,1003.80
2018-01-15T10:33:55.692Z,1003.72
2018-01-15T10:34:55.710Z,1003.68
2018-01-15T10:36:48.661Z,1003.69
2018-01-15T10:37:48.661Z,1003.63
2018-01-15T10:39:41.620Z,1003.54
2018-01-15T10:40:41.612Z,1003.52
2018-01-15T10:42:34.552Z,1003.46
2018-01-15T10:43:34.570Z,1003.43
2018-01-15T10:45:28.036Z,1003.36
2018-01-15T10:46:28.037Z,1003.33
2018-01-15T10:48:20.972Z,1003.25
2018-01-15T10:49:20.990Z,1003.28
2018-01-15T10:51:13.951Z,1003.12
2018-01-15T10:52:13.941Z,1003.14
2018-01-15T10:54:07.392Z,1003.16
2018-01-15T10:55:07.411Z,1003.08
2018-01-15T10:57:00.369Z,1003.05
2018-01-15T10:58:00.368Z,1003.01
2018-01-15T10:59:53.327Z,1003.04
2018-01-15T11:00:53.325Z,1003.03
2018-01-15T11:02:46.226Z,1002.97
2018-01-15T11:03:46.243Z,1002.91
2018-01-15T11:05:39.664Z,1002.90
2018-01-15T11:06:39.657Z,1002.83
2018-01-15T11:08:32.563Z,1002.80
2018-01-15T11:09:32.578Z,1002.76
2018-01-15T11:11:25.508Z,1002.71
2018-01-15T11:12:25.506Z,1002.71
2018-01-15T11:14:18.413Z,1002.68
2018-01-15T11:15:18.431Z,1002.67
2018-01-15T11:17:11.351Z,1002.58
2018-01-15T11:18:11.351Z,1002.60
2018-01-15T11:20:04.277Z,1002.44
2018-01-15T11:21:04.268Z,1002.42
2018-01-15T11:22:57.180Z,1002.43
2018-01-15T11:23:57.205Z,1002.38
2018-01-15T11:25:50.250Z,1002.29
2018-01-15T11:26:50.132Z,1002.29
2018-01-15T11:28:43.027Z,1002.17
2018-01-15T11:29:43.045Z,1002.17
2018-01-15T11:31:35.968Z,1002.09
2018-01-15T11:32:35.969Z,1002.10
2018-01-15T11:34:28.871Z,1002.10
2018-01-15T11:35:28.897Z,1002.03
2018-01-15T11:37:21.820Z,1001.97
2018-01-15T11:38:21.815Z,1001.94
2018-01-15T11:40:14.806Z,1001.82
2018-01-15T11:41:14.744Z,1001.85
2018-01-15T11:43:07.665Z,1001.75
2018-01-15T11:44:07.665Z,1001.71
2018-01-15T11:46:00.587Z,1001.69
2018-01-15T11:47:00.588Z,1001.63
2018-01-15T11:48:53.494Z,1001.65
2018-01-15T11:49:53.511Z,1001.56
2018-01-15T11:51:46.931Z,1001.56
2018-01-15T11:52:46.928Z,1001.53
2018-01-15T11:54:39.835Z,1001.47
2018-01-15T11:55:39.852Z,1001.38
2018-01-15T11:57:32.775Z,1001.19
2018-01-15T11:58:32.777Z,1001.17
2018-01-15T12:00:25.681Z,1001.16
2018-01-15T12:01:25.699Z,1001.15
2018-01-15T12:03:18.623Z,1001.04
2018-01-15T12:04:18.624Z,1001.03
2018-01-15T12:06:11.559Z,1000.97
2018-01-15T12:07:11.549Z,1000.99
2018-01-15T12:09:04.455Z,1000.94
2018-01-15T12:10:04.473Z,1000.89
2018-01-15T12:11:57.398Z,1000.80
2018-01-15T12:12:57.400Z,1000.79
2018-01-15T12:14:50.305Z,1000.72
2018-01-15T12:15:50.324Z,1000.72
2018-01-15T12:17:43.250Z,1000.63
2018-01-15T12:18:43.244Z,1000.60
2018-01-15T12:20:36.152Z,1000.59
2018-01-15T12:21:36.167Z,1000.55
2018-01-15T12:23:29.101Z,1000.49
2018-01-15T12:24:29.095Z,1000.40
2018-01-15T12:26:22.018Z,1000.31
2018-01-15T12:27:22.021Z,1000.25
2018-01-15T12:29:14.922Z,1000.22
2018-01-15T12:30:14.946Z,1000.22
2018-01-15T12:32:07.858Z,1000.07
2018-01-15T12:33:07.858Z,1000.07
2018-01-15T12:35:00.769Z,999.96
2018-01-15T12:36:00.786Z,999.93
2018-01-15T12:37:53.713Z,999.84
2018-01-15T12:38:53.711Z,999.82
2018-01-15T12:40:46.619Z,999.75
2018-01-15T12:41:46.634Z,999.78
2018-01-15T12:43:39.560Z,999.72
2018-01-15T12:44:39.560Z,999.68
2018-01-15T12:46:32.482Z,999.67
2018-01-15T12:47:32.483Z,999.54
2018-01-15T12:49:25.396Z,999.56
2018-01-15T12:50:25.413Z,999.57
2018-01-15T12:52:18.337Z,999.43
2018-01-15T12:53:18.336Z,999.42
2018-01-15T12:55:11.241Z,999.38
2018-01-15T12:56:11.264Z,999.33
2018-01-15T12:58:04.183Z,999.27
2018-01-15T12:59:04.182Z,999.29
2018-01-15T13:00:57.088Z,999.21
2018-01-15T13:01:57.106Z,999.18
2018-01-15T13:03:50.033Z,999.13
2018-01-15T13:04:50.032Z,999.12
2018-01-15T13:06:42.956Z,999.02
2018-01-15T13:07:42.953Z,999.00
2018-01-15T13:09:35.864Z,998.90
2018-01-15T13:10:35.877Z,998.87
2018-01-15T13:12:28.805Z,998.86
2018-01-15T13:13:28.800Z,998.89
2018-01-15T13:15:21.704Z,998.83
2018-01-15T13:16:21.725Z,998.79
2018-01-15T13:18:14.650Z,998.74
2018-01-15T13:19:14.654Z,998.72
2018-01-15T13:21:07.577Z,998.54
2018-01-15T13:22:07.577Z,998.45
2018-01-15T13:24:00.502Z,998.46
2018-01-15T13:25:00.497Z,998.46
2018-01-15T13:26:53.422Z,998.33
2018-01-15T13:27:53.423Z,998.29
2018-01-15T13:29:46.325Z,998.23
2018-01-15T13:30:46.347Z,998.24
2018-01-15T13:32:39.271Z,998.22
2018-01-15T13:33:39.293Z,998.17
2018-01-15T13:35:32.174Z,998.03
2018-01-15T13:36:32.196Z,998.01
2018-01-15T13:38:25.132Z,997.91
2018-01-15T13:39:25.128Z,997.85
2018-01-15T13:41:18.034Z,997.77
2018-01-15T13:42:18.051Z,997.74
2018-01-15T13:44:10.971Z,997.72
2018-01-15T13:45:10.972Z,997.72
2018-01-15T13:47:03.896Z,997.73
2018-01-15T13:48:03.901Z,997.63
2018-01-15T13:49:56.830Z,997.61
2018-01-15T13:50:56.833Z,997.58
2018-01-15T13:52:49.763Z,997.42
2018-01-15T13:53:49.762Z,997.41
2018-01-15T13:55:42.665Z,997.43
2018-01-15T13:56:42.683Z,997.44
2018-01-15T13:58:35.644Z,997.42
2018-01-15T13:59:35.611Z,997.34
2018-01-15T14:01:28.514Z,997.30
2018-01-15T14:02:28.533Z,997.24
2018-01-15T14:04:21.458Z,997.24
2018-01-15T14:05:21.462Z,997.23
2018-01-15T14:07:14.384Z,997.16
2018-01-15T14:08:14.383Z,997.11
2018-01-15T14:10:07.300Z,997.08
2018-01-15T14:11:07.320Z,997.03
2018-01-15T14:13:00.245Z,996.95
2018-01-15T14:14:00.244Z,996.95
2018-01-15T14:15:53.160Z,996.87
2018-01-15T14:16:53.185Z,996.93
2018-01-15T14:18:46.136Z,996.78
2018-01-15T14:19:46.136Z,996.81
2018-01-15T14:21:39.071Z,996.78
2018-01-15T14:22:39.087Z,996.81
2018-01-15T14:24:32.024Z,996.81
2018-01-15T14:25:32.014Z,996.74
2018-01-15T14:27:25.003Z,996.70
2018-01-15T14:28:25.003Z,996.74
2018-01-15T14:30:17.909Z,996.68
2018-01-15T14:31:17.929Z,996.64
2018-01-15T14:33:10.852Z,996.62
2018-01-15T14:34:10.851Z,996.63
2018-01-15T14:36:03.809Z,996.61
2018-01-15T14:37:03.813Z,996.55
2018-01-15T14:38:56.860Z,996.51
2018-01-15T14:39:56.734Z,996.53
2018-01-15T14:41:50.136Z,996.51
2018-01-15T14:42:50.152Z,996.44
2018-01-15T14:44:43.078Z,996.43
2018-01-15T14:45:43.076Z,996.40
2018-01-15T14:47:36.026Z,996.48
2018-01-15T14:48:36.026Z,996.37
2018-01-15T14:50:28.928Z,996.35
2018-01-15T14:51:28.994Z,996.31
2018-01-15T14:53:21.871Z,996.36
2018-01-15T14:54:21.868Z,996.30
2018-01-15T14:56:14.780Z,996.34
2018-01-15T14:57:14.794Z,996.27
2018-01-15T14:59:07.799Z,996.20
2018-01-15T15:00:07.797Z,996.15
2018-01-15T15:02:00.789Z,996.18
2018-01-15T15:03:00.799Z,996.12
2018-01-15T15:04:53.670Z,996.08
2018-01-15T15:05:53.670Z,995.99
2018-01-15T15:07:46.607Z,995.94
2018-01-15T15:08:46.600Z,995.91
2018-01-15T15:10:39.510Z,995.92
2018-01-15T15:11:39.548Z,995.92
2018-01-15T15:13:32.470Z,995.88
2018-01-15T15:14:32.466Z,995.81
2018-01-15T15:16:25.402Z,995.80
2018-01-15T15:17:25.423Z,995.74
2018-01-15T15:19:18.354Z,995.68
2018-01-15T15:20:18.349Z,995.67
2018-01-15T15:22:11.286Z,995.61
2018-01-15T15:23:11.303Z,995.58
2018-01-15T15:25:04.193Z,995.49
2018-01-15T15:26:04.190Z,995.47
2018-01-15T15:27:57.626Z,995.42
2018-01-15T15:28:57.627Z,995.40
2018-01-15T15:30:50.561Z,995.35
2018-01-15T15:31:50.548Z,995.28
2018-01-15T15:33:43.468Z,995.22
2018-01-15T15:34:43.464Z,995.22
2018-01-15T15:36:36.386Z,995.17
2018-01-15T15:37:36.424Z,995.17
2018-01-15T15:39:29.316Z,995.10
2018-01-15T15:40:29.315Z,995.07
2018-01-15T15:42:22.231Z,994.96
2018-01-15T15:43:22.250Z,994.97
2018-01-15T15:45:15.678Z,994.93
2018-01-15T15:46:15.661Z,994.87
2018-01-15T15:48:08.599Z,994.86
2018-01-15T15:49:08.588Z,994.74
2018-01-15T15:51:01.490Z,994.68
2018-01-15T15:52:01.505Z,994.66
2018-01-15T15:53:54.432Z,994.54
2018-01-15T15:54:54.433Z,994.59
2018-01-15T15:56:47.372Z,994.56
2018-01-15T15:57:47.379Z,994.44
2018-01-15T15:59:40.275Z,994.40
2018-01-15T16:00:40.273Z,994.34
2018-01-15T16:02:33.285Z,994.19
2018-01-15T16:03:33.393Z,994.23
2018-01-15T16:05:26.254Z,994.13
2018-01-15T16:06:26.262Z,994.10
2018-01-15T16:08:19.210Z,994.01
2018-01-15T16:09:19.206Z,993.96
2018-01-15T16:11:12.147Z,993.88
2018-01-15T16:12:12.164Z,993.84
2018-01-15T16:14:05.116Z,993.76
2018-01-15T16:15:05.121Z,993.72
2018-01-15T16:16:58.069Z,993.65
2018-01-15T16:17:58.091Z,993.62
2018-01-15T16:19:51.542Z,993.53
2018-01-15T16:20:51.546Z,993.50
2018-01-15T16:22:44.528Z,993.48
2018-01-15T16:23:44.525Z,993.40
2018-01-15T16:25:37.472Z,993.34
2018-01-15T16:26:37.462Z,993.28
2018-01-15T16:28:30.400Z,993.21
2018-01-15T16:29:31.418Z,993.17
2018-01-15T16:31:23.343Z,993.12
2018-01-15T16:32:23.354Z,993.07
2018-01-15T16:34:16.909Z,993.03
2018-01-15T16:35:16.820Z,992.98
2018-01-15T16:37:09.766Z,992.87
2018-01-15T16:38:09.777Z,992.86
2018-01-15T16:40:02.730Z,992.79
2018-01-15T16:41:02.725Z,992.78
2018-01-15T16:42:55.669Z,992.67
2018-01-15T16:43:55.778Z,992.65
2018-01-15T16:45:48.701Z,992.68
2018-01-15T16:46:48.657Z,992.58
2018-01-15T16:48:42.084Z,992.54
2018-01-15T16:49:42.119Z,992.53
2018-01-15T16:51:35.057Z,992.40
2018-01-15T16:52:35.054Z,992.37
2018-01-15T16:54:28.523Z,992.35
2018-01-15T16:55:28.519Z,992.32
2018-01-15T16:57:21.474Z,992.24
2018-01-15T16:58:21.588Z,992.22
2018-01-15T17:00:14.490Z,992.19
2018-01-15T17:01:14.428Z,992.16
2018-01-15T17:03:07.370Z,992.07
2018-01-15T17:04:07.389Z,992.06
2018-01-15T17:06:00.349Z,992.00
2018-01-15T17:07:00.341Z,991.97
2018-01-15T17:08:53.280Z,991.92
2018-01-15T17:09:53.292Z,991.92
2018-01-15T17:11:46.248Z,991.89
2018-01-15T17:12:46.249Z,991.88
2018-01-15T17:14:39.202Z,991.82
2018-01-15T17:15:39.226Z,991.76
2018-01-15T17:17:32.101Z,991.71
2018-01-15T17:18:32.119Z,991.60
2018-01-15T17:20:25.038Z,991.58
2018-01-15T17:21:25.038Z,991.54
2018-01-15T17:23:17.939Z,991.49
2018-01-15T17:24:17.987Z,991.35
2018-01-15T17:26:10.874Z,991.24
2018-01-15T17:27:10.872Z,991.31
2018-01-15T17:29:03.785Z,991.21
2018-01-15T17:30:03.802Z,991.23
2018-01-15T17:31:56.805Z,991.19
2018-01-15T17:32:56.739Z,991.11
2018-01-15T17:34:49.640Z,991.00
2018-01-15T17:35:49.643Z,990.99